Johns Island, South Carolina
Current Conditions -  °F | °C
As of 4:56 PM on Monday 20 Oct 2014 (Local Time) from KCHS Reporting Station
Scattered Clouds Scattered Clouds  
Wind Chill: 75°   Ceiling: Unl
Heat Index: 75°   Visibility: 10mi
Dew Point: 56°   Wind: 6mph
Humidity: 51%   Direction: 200°SSW
Pressure: 30"   Gusts: NA
Location:  32.79°N, 80.11°W
Report Text: KCHS 202056Z 20005KT 10SM SCT050 SCT250 24/13 A3000 RMK AO2 SLP158 T02390133 56018
Loading
Personal Weather Stations






























Interactive Weather Map
Tropical Storm Tracking
New forecast layout! Learn more

10-Day Weather Forecast

Advertisements
Track Severe Weather on mobile